Time;durP1;ratioP1;P1;durP2;ratioP2;P2;SDS_P1;SDS_P2;PMS_P1;PMS_P2;Temp;Humidity;BMP_temperature;BMP_pressure;BME280_temperature;BME280_humidity;BME280_pressure;Samples;Min_cycle;Max_cycle;Signal;HPM_P1;HPM_P2
2022/04/06 00:02:17;;;;;;;1.70;1.23;;;;;;;-145.69;100.00;71617.31;5055370;28;20223;-77
2022/04/06 00:04:44;;;;;;;3.40;1.27;;;;;;;-145.69;100.00;71619.28;5054810;28;20716;-77
2022/04/06 00:07:10;;;;;;;2.37;1.40;;;;;;;-145.69;100.00;71591.44;5054137;28;20675;-77
2022/04/06 00:09:39;;;;;;;2.53;1.30;;;;;;;-145.69;100.00;71581.50;5054185;28;20609;-77
2022/04/06 00:12:08;;;;;;;2.70;1.55;;;;;;;-145.69;100.00;71581.50;5058530;28;20513;-76
2022/04/06 00:14:34;;;;;;;2.23;1.47;;;;;;;-145.69;100.00;71587.47;5073637;28;20733;-77
2022/04/06 00:17:05;;;;;;;1.90;1.23;;;;;;;-145.69;100.00;71597.41;5074059;28;20264;-77
2022/04/06 00:19:32;;;;;;;1.80;1.40;;;;;;;-145.69;100.00;71609.34;5073882;28;20194;-77
2022/04/06 00:21:58;;;;;;;1.80;1.40;;;;;;;-145.69;100.00;71621.28;5073495;28;20728;-77
2022/04/06 00:24:25;;;;;;;1.17;1.00;;;;;;;-145.69;100.00;71633.22;5073859;28;20203;-77
2022/04/06 00:26:51;;;;;;;1.93;1.10;;;;;;;-145.69;100.00;71647.16;5074057;28;20205;-77
2022/04/06 00:29:19;;;;;;;1.30;1.20;;;;;;;-145.69;100.00;71653.13;5073844;28;20628;-77
2022/04/06 00:31:45;;;;;;;1.33;1.20;;;;;;;-145.69;100.00;71651.13;5073675;28;20207;-77
2022/04/06 00:34:12;;;;;;;1.50;1.30;;;;;;;-145.69;100.00;71651.13;5073739;28;20195;-77
2022/04/06 00:36:38;;;;;;;1.80;1.30;;;;;;;-145.69;100.00;71653.13;5073704;28;20277;-76
2022/04/06 00:39:05;;;;;;;1.30;1.20;;;;;;;-145.69;100.00;71653.13;5073361;28;20202;-76
2022/04/06 00:41:31;;;;;;;1.60;1.30;;;;;;;-145.69;100.00;71647.16;5073388;28;20225;-76
2022/04/06 00:44:15;;;;;;;2.43;1.37;;;;;;;-145.69;100.00;71655.13;5073424;28;20201;-77
2022/04/06 00:46:44;;;;;;;3.17;1.60;;;;;;;-145.69;100.00;71655.13;5073580;28;20198;-76
2022/04/06 00:49:13;;;;;;;2.83;2.10;;;;;;;-145.69;100.00;71627.25;5073524;28;20202;-76
2022/04/06 00:51:41;;;;;;;3.83;2.58;;;;;;;-145.69;100.00;71607.34;5073189;28;20442;-77
2022/04/06 00:54:08;;;;;;;3.00;2.17;;;;;;;-145.69;100.00;71609.34;5073522;28;20230;-76
2022/04/06 00:56:35;;;;;;;2.27;1.70;;;;;;;-145.69;100.00;71617.31;5073204;28;20657;-76
2022/04/06 00:59:03;;;;;;;2.90;1.90;;;;;;;-145.69;100.00;71629.25;5073464;28;20237;-76
2022/04/06 01:01:29;;;;;;;3.43;1.90;;;;;;;-145.69;100.00;71623.28;5073154;28;20226;-76
2022/04/06 01:03:57;;;;;;;2.40;1.80;;;;;;;-145.69;100.00;71619.28;5073166;28;20207;-76
2022/04/06 01:06:24;;;;;;;2.23;1.73;;;;;;;-145.69;100.00;71625.25;5073399;28;20199;-77
2022/04/06 01:08:52;;;;;;;3.77;2.40;;;;;;;-145.69;100.00;71627.25;5073409;28;20199;-76
2022/04/06 01:11:18;;;;;;;2.33;1.80;;;;;;;-145.69;100.00;71629.25;5072995;28;20198;-76
2022/04/06 01:13:46;;;;;;;2.93;1.80;;;;;;;-145.69;100.00;71625.25;5073024;28;20677;-76
2022/04/06 01:16:12;;;;;;;2.20;1.60;;;;;;;-145.69;100.00;71633.22;5073115;28;20198;-76
2022/04/06 01:18:41;;;;;;;1.77;1.30;;;;;;;-145.69;100.00;71633.22;5072670;28;20705;-76
2022/04/06 01:21:11;;;;;;;2.00;1.43;;;;;;;-145.69;100.00;71629.25;5073115;28;20223;-76
2022/04/06 01:23:40;;;;;;;3.40;1.50;;;;;;;-145.69;100.00;71631.25;5072917;28;20198;-77
2022/04/06 01:26:06;;;;;;;1.47;1.10;;;;;;;-145.69;100.00;71649.16;5072929;28;20202;-76
2022/04/06 01:28:33;;;;;;;2.30;1.10;;;;;;;-145.69;100.00;71659.09;5073106;28;20203;-76
2022/04/06 01:30:59;;;;;;;1.80;1.57;;;;;;;-145.69;100.00;71653.13;5072913;28;20210;-76
2022/04/06 01:33:26;;;;;;;2.70;1.60;;;;;;;-145.69;100.00;71649.16;5072961;28;20562;-76
2022/04/06 01:35:52;;;;;;;4.47;1.53;;;;;;;-145.69;100.00;71645.16;5073102;28;20221;-77
2022/04/06 01:38:19;;;;;;;1.90;1.30;;;;;;;-145.69;100.00;71669.03;5072910;28;20677;-76
2022/04/06 01:40:46;;;;;;;2.10;1.30;;;;;;;-145.69;100.00;71675.00;5072769;28;20701;-76
2022/04/06 01:43:13;;;;;;;1.77;1.13;;;;;;;-145.69;100.00;71675.00;5073024;28;20534;-76
2022/04/06 01:45:40;;;;;;;1.87;1.50;;;;;;;-145.69;100.00;71675.00;5072775;28;20223;-77
2022/04/06 01:48:06;;;;;;;1.90;1.33;;;;;;;-145.69;100.00;71671.03;5072780;28;20657;-76
2022/04/06 01:53:17;;;;;;;3.87;1.40;;;;;;;-145.69;100.00;71671.03;5072847;28;20249;-77
2022/04/06 01:55:44;;;;;;;2.70;1.60;;;;;;;-145.69;100.00;71669.03;5072855;28;20256;-77
2022/04/06 01:58:13;;;;;;;1.60;1.50;;;;;;;-145.69;100.00;71673.03;5064783;28;20663;-77
2022/04/06 02:00:40;;;;;;;1.63;1.20;;;;;;;-145.69;100.00;71680.97;5052501;28;20256;-77
2022/04/06 02:03:06;;;;;;;4.67;1.40;;;;;;;-145.69;100.00;71682.97;5052680;28;20286;-77
2022/04/06 02:05:34;;;;;;;2.13;1.60;;;;;;;-145.69;100.00;71680.97;5052823;28;20281;-76
2022/04/06 02:08:02;;;;;;;2.17;1.70;;;;;;;-145.69;100.00;71671.03;5052455;28;20254;-76
2022/04/06 02:10:29;;;;;;;1.80;1.70;;;;;;;-145.69;100.00;71675.00;5052395;28;20562;-77
2022/04/06 02:12:56;;;;;;;3.70;1.90;;;;;;;-145.69;100.00;71669.03;5068359;28;20206;-77
2022/04/06 02:15:27;;;;;;;2.40;1.73;;;;;;;-145.69;100.00;71657.09;5052537;28;20200;-76
2022/04/06 02:17:54;;;;;;;2.83;1.63;;;;;;;-145.69;100.00;71663.06;5052460;28;20242;-76
2022/04/06 02:20:21;;;;;;;2.43;1.80;;;;;;;-145.69;100.00;71657.09;5052701;28;20207;-76
2022/04/06 02:22:48;;;;;;;4.00;1.87;;;;;;;-145.69;100.00;71649.16;5054747;28;20227;-76
2022/04/06 02:25:15;;;;;;;2.57;1.70;;;;;;;-145.69;100.00;71649.16;5055770;28;20283;-76
2022/04/06 02:27:49;;;;;;;2.43;1.77;;;;;;;-145.69;100.00;71645.16;5056058;28;20203;-76
2022/04/06 02:30:17;;;;;;;3.97;2.27;;;;;;;-145.69;100.00;71643.19;5056022;28;20206;-76
2022/04/06 02:32:45;;;;;;;2.33;1.60;;;;;;;-145.69;100.00;71649.16;5055963;28;20299;-76
2022/04/06 02:35:12;;;;;;;2.27;1.73;;;;;;;-145.69;100.00;71653.13;5055944;28;20207;-76
2022/04/06 02:37:41;;;;;;;5.13;1.97;;;;;;;-145.69;100.00;71649.16;5055736;28;20601;-76
2022/04/06 02:40:09;;;;;;;2.50;1.90;;;;;;;-145.69;100.00;71643.19;5055774;28;20559;-75
2022/04/06 02:42:35;;;;;;;3.50;2.00;;;;;;;-145.69;100.00;71645.16;5068670;28;20233;-76
2022/04/06 02:45:02;;;;;;;2.60;1.83;;;;;;;-145.69;100.00;71643.19;5075712;28;20203;-76
2022/04/06 02:47:28;;;;;;;4.30;2.00;;;;;;;-145.69;100.00;71637.19;5075741;28;20233;-76
2022/04/06 02:49:56;;;;;;;3.40;2.30;;;;;;;-145.69;100.00;71611.34;5075737;28;20199;-76
2022/04/06 02:52:23;;;;;;;2.80;1.97;;;;;;;-145.69;100.00;71621.28;5075418;28;20203;-77
2022/04/06 02:54:49;;;;;;;2.20;1.70;;;;;;;-145.69;100.00;71621.28;5075709;28;20293;-76
2022/04/06 02:57:15;;;;;;;2.27;1.77;;;;;;;-145.69;100.00;71621.28;5075731;28;20203;-76
2022/04/06 02:59:42;;;;;;;2.20;1.80;;;;;;;-145.69;100.00;71627.25;5075680;28;20199;-76
2022/04/06 03:02:08;;;;;;;2.33;1.80;;;;;;;-145.69;100.00;71629.25;5075480;28;20233;-76
2022/04/06 03:04:35;;;;;;;2.27;1.70;;;;;;;-145.69;100.00;71617.31;5075391;28;20206;-76
2022/04/06 03:07:03;;;;;;;3.57;2.00;;;;;;;-145.69;100.00;71619.28;5075423;28;20207;-76
2022/04/06 03:09:29;;;;;;;2.63;1.60;;;;;;;-145.69;100.00;71619.28;5075680;28;20199;-76
2022/04/06 03:11:56;;;;;;;1.73;1.30;;;;;;;-145.69;100.00;71621.28;5075330;28;20199;-77
2022/04/06 03:14:22;;;;;;;2.90;1.87;;;;;;;-145.69;100.00;71619.28;5075213;28;20198;-77
2022/04/06 03:16:48;;;;;;;2.10;1.70;;;;;;;-145.69;100.00;71613.31;5075037;28;20202;-76
2022/04/06 03:19:15;;;;;;;3.20;2.20;;;;;;;-145.69;100.00;71613.31;5075201;28;20596;-76
2022/04/06 03:21:41;;;;;;;2.17;1.90;;;;;;;-145.69;100.00;71623.28;5075118;28;20226;-76
2022/04/06 03:24:09;;;;;;;1.93;1.70;;;;;;;-145.69;100.00;71637.19;5075440;28;20210;-77
2022/04/06 03:26:35;;;;;;;1.80;1.50;;;;;;;-145.69;100.00;71661.09;5075119;28;20202;-77
2022/04/06 03:29:02;;;;;;;2.90;1.70;;;;;;;-145.69;100.00;71663.06;5074762;28;20669;-77
2022/04/06 03:31:28;;;;;;;2.40;1.90;;;;;;;-145.69;100.00;71661.09;5074875;28;20202;-76
2022/04/06 03:33:55;;;;;;;3.80;2.60;;;;;;;-145.69;100.00;71645.16;5073804;28;20202;-76
2022/04/06 03:36:21;;;;;;;2.80;2.27;;;;;;;-145.69;100.00;71637.19;5074706;28;20654;-77
2022/04/06 03:38:47;;;;;;;3.20;2.10;;;;;;;-145.69;100.00;71627.25;5074641;28;20214;-77
2022/04/06 03:41:15;;;;;;;3.47;2.43;;;;;;;-145.69;100.00;71619.28;5074298;28;20198;-77
2022/04/06 03:43:41;;;;;;;8.70;2.90;;;;;;;-145.69;100.00;71613.31;5074441;28;20252;-77
2022/04/06 03:46:08;;;;;;;3.00;2.27;;;;;;;-145.69;100.00;71605.38;5074565;28;20597;-77
2022/04/06 03:48:35;;;;;;;3.43;2.10;;;;;;;-145.69;100.00;71613.31;5074360;28;20245;-77
2022/04/06 03:51:01;;;;;;;3.83;2.47;;;;;;;-145.69;100.00;71607.34;5074798;28;20276;-77
2022/04/06 03:53:27;;;;;;;3.53;2.30;;;;;;;-145.69;100.00;71609.34;5074504;28;20612;-76
2022/04/06 03:55:54;;;;;;;4.87;2.77;;;;;;;-145.69;100.00;71609.34;5074202;28;20256;-76
2022/04/06 03:58:22;;;;;;;5.40;3.07;;;;;;;-145.69;100.00;71615.31;5058484;28;20250;-76
2022/04/06 04:00:48;;;;;;;4.30;2.50;;;;;;;-145.69;100.00;71629.25;5054351;28;20195;-76
2022/04/06 04:03:15;;;;;;;3.80;2.50;;;;;;;-145.69;100.00;71637.19;5053909;28;20637;-77
2022/04/06 04:05:41;;;;;;;4.40;2.63;;;;;;;-145.69;100.00;71645.16;5054090;28;20206;-76
2022/04/06 04:08:08;;;;;;;4.23;2.77;;;;;;;-145.69;100.00;71639.19;5054286;28;20203;-77
2022/04/06 04:10:34;;;;;;;3.90;2.77;;;;;;;-145.69;100.00;71631.25;5067760;28;20250;-76
2022/04/06 04:13:02;;;;;;;4.10;2.93;;;;;;;-145.69;100.00;71629.25;5074165;28;20201;-77
2022/04/06 04:15:31;;;;;;;4.70;3.20;;;;;;;-145.69;100.00;71629.25;5073849;28;20198;-77
2022/04/06 04:17:57;;;;;;;4.00;2.60;;;;;;;-145.69;100.00;71643.19;5073731;28;20292;-77
2022/04/06 04:20:24;;;;;;;4.13;2.43;;;;;;;-145.69;100.00;71653.13;5073885;28;20558;-77
2022/04/06 04:22:50;;;;;;;2.40;2.20;;;;;;;-145.69;100.00;71639.19;5073982;28;20261;-76
2022/04/06 04:25:16;;;;;;;4.60;2.60;;;;;;;-145.69;100.00;71639.19;5073959;28;20221;-76
2022/04/06 04:27:43;;;;;;;4.90;2.63;;;;;;;-145.69;100.00;71639.19;5073494;28;20675;-77
2022/04/06 04:30:11;;;;;;;4.37;2.60;;;;;;;-145.69;100.00;71645.16;5073446;28;20209;-76
2022/04/06 04:32:38;;;;;;;3.27;2.50;;;;;;;-145.69;100.00;71637.19;5073791;28;20209;-76
2022/04/06 04:35:08;;;;;;;3.90;2.83;;;;;;;-145.69;100.00;71627.25;5073986;28;20209;-76
2022/04/06 04:37:34;;;;;;;5.30;3.37;;;;;;;-145.69;100.00;71617.31;5073895;28;20249;-76
2022/04/06 04:40:01;;;;;;;5.03;3.30;;;;;;;-145.69;100.00;71595.41;5073353;28;20203;-76
2022/04/06 04:42:27;;;;;;;5.17;3.30;;;;;;;-145.69;100.00;71583.47;5073306;28;20229;-76
2022/04/06 04:44:54;;;;;;;6.20;3.93;;;;;;;-145.69;100.00;71577.50;5072986;28;20194;-77
2022/04/06 04:47:20;;;;;;;5.43;3.50;;;;;;;-145.69;100.00;71563.56;5073642;28;20248;-76
2022/04/06 04:49:48;;;;;;;7.80;3.80;;;;;;;-145.69;100.00;71549.66;5073485;28;20207;-76
2022/04/06 04:52:15;;;;;;;4.13;3.27;;;;;;;-145.69;100.00;71557.59;5073262;28;20676;-77
2022/04/06 04:54:41;;;;;;;7.50;3.53;;;;;;;-145.69;100.00;71553.63;5073380;28;20195;-77
2022/04/06 04:57:08;;;;;;;7.63;3.60;;;;;;;-145.69;100.00;71545.66;5073318;28;20221;-77
2022/04/06 04:59:34;;;;;;;4.93;3.40;;;;;;;-145.69;100.00;71529.75;5073229;28;20584;-77
2022/04/06 05:02:01;;;;;;;4.73;3.40;;;;;;;-145.69;100.00;71521.78;5073341;28;20226;-76
2022/04/06 05:04:27;;;;;;;4.80;3.33;;;;;;;-145.69;100.00;71525.78;5073390;28;20199;-76
2022/04/06 05:06:55;;;;;;;4.87;3.30;;;;;;;-145.69;100.00;71491.94;5073126;28;20198;-76
2022/04/06 05:09:21;;;;;;;7.57;3.80;;;;;;;-145.69;100.00;71478.00;5073050;28;20191;-77
2022/04/06 05:11:48;;;;;;;5.97;3.20;;;;;;;-145.69;100.00;71470.06;5072847;28;20268;-76
2022/04/06 05:14:14;;;;;;;4.93;3.28;;;;;;;-145.69;100.00;71476.03;5071991;28;20976;-76
2022/04/06 05:16:41;;;;;;;5.00;3.40;;;;;;;-145.69;100.00;71470.06;5073223;28;20756;-76
2022/04/06 05:19:07;;;;;;;4.03;2.93;;;;;;;-145.69;100.00;71476.03;5073110;28;20202;-76
2022/04/06 05:21:34;;;;;;;6.07;3.20;;;;;;;-145.69;100.00;71458.09;5073024;28;20202;-77
2022/04/06 05:24:04;;;;;;;5.93;4.10;;;;;;;-145.69;100.00;71470.06;5072939;28;20624;-76
2022/04/06 05:26:31;;;;;;;4.53;3.13;;;;;;;-145.69;100.00;71466.06;5072936;28;20209;-76
2022/04/06 05:28:57;;;;;;;8.00;3.40;;;;;;;-145.69;100.00;71466.06;5073057;28;20202;-77
2022/04/06 05:31:24;;;;;;;6.30;3.57;;;;;;;-145.69;100.00;71454.13;5073047;28;20201;-77
2022/04/06 05:33:50;;;;;;;5.27;3.17;;;;;;;-145.69;100.00;71454.13;5072916;28;20203;-76
2022/04/06 05:36:17;;;;;;;6.03;3.50;;;;;;;-145.69;100.00;71456.13;5072826;28;20596;-77
2022/04/06 05:38:43;;;;;;;5.40;3.33;;;;;;;-145.69;100.00;71450.16;5072672;28;20248;-76
2022/04/06 05:41:11;;;;;;;4.90;3.20;;;;;;;-145.69;100.00;71442.19;5052779;28;20206;-78
2022/04/06 05:43:38;;;;;;;4.80;3.50;;;;;;;-145.69;100.00;71438.22;5052851;28;20231;-76
2022/04/06 05:46:04;;;;;;;5.07;2.97;;;;;;;-145.69;100.00;71438.22;5052691;28;20204;-76
2022/04/06 05:48:30;;;;;;;6.40;2.70;;;;;;;-145.69;100.00;71446.16;5052921;28;20196;-77
2022/04/06 05:50:57;;;;;;;3.73;2.53;;;;;;;-145.69;100.00;71474.03;5052785;28;20195;-77
2022/04/06 05:53:23;;;;;;;7.63;2.97;;;;;;;-145.69;100.00;71458.09;5052530;28;20262;-76
2022/04/06 05:55:51;;;;;;;4.33;2.80;;;;;;;-145.69;100.00;71466.06;5052738;28;20196;-77
2022/04/06 05:58:18;;;;;;;4.10;2.33;;;;;;;-145.69;100.00;71442.19;5055931;28;20207;-77
2022/04/06 06:00:45;;;;;;;4.07;2.47;;;;;;;-145.69;100.00;71438.22;5058526;28;20192;-77
2022/04/06 06:03:11;;;;;;;5.37;2.40;;;;;;;-145.69;100.00;71438.22;5056365;28;20234;-77
2022/04/06 06:05:38;;;;;;;7.73;2.53;;;;;;;-145.69;100.00;71418.31;5056268;28;20548;-76
2022/04/06 06:08:05;;;;;;;4.57;2.93;;;;;;;-145.69;100.00;71414.34;5056356;28;20203;-77
2022/04/06 06:10:32;;;;;;;4.43;2.70;;;;;;;-145.69;100.00;71402.41;5073757;28;20195;-77
2022/04/06 06:12:59;;;;;;;3.40;2.23;;;;;;;-145.69;100.00;71398.41;5076469;28;20297;-77
2022/04/06 06:15:26;;;;;;;4.13;2.07;;;;;;;-145.69;100.00;71382.50;5076102;28;20199;-77
2022/04/06 06:17:53;;;;;;;1.73;1.60;;;;;;;-145.69;100.00;71386.47;5076131;28;20238;-78
2022/04/06 06:20:20;;;;;;;3.00;1.87;;;;;;;-145.69;100.00;71378.50;5075983;28;20199;-78
2022/04/06 06:22:46;;;;;;;2.37;1.70;;;;;;;-145.69;100.00;71364.59;5075659;28;20230;-77
2022/04/06 06:25:13;;;;;;;2.10;1.50;;;;;;;-145.69;100.00;71350.66;5075937;28;20211;-77
2022/04/06 06:27:40;;;;;;;2.07;1.60;;;;;;;-145.69;100.00;71338.72;5075920;28;20203;-77
2022/04/06 06:30:07;;;;;;;2.63;1.53;;;;;;;-145.69;100.00;71328.78;5075770;28;20202;-76
2022/04/06 06:32:35;;;;;;;1.83;1.07;;;;;;;-145.69;100.00;71322.81;5075727;28;20206;-77
2022/04/06 06:35:01;;;;;;;2.33;1.47;;;;;;;-145.69;100.00;71322.81;5075861;28;20199;-77
2022/04/06 06:37:28;;;;;;;4.60;1.90;;;;;;;-145.69;100.00;71318.81;5075647;28;20210;-77
2022/04/06 06:39:54;;;;;;;3.03;1.50;;;;;;;-145.69;100.00;71314.84;5075210;28;20438;-78
2022/04/06 06:42:21;;;;;;;3.77;1.50;;;;;;;-145.69;100.00;71308.88;5076442;28;20527;-77
2022/04/06 06:44:47;;;;;;;2.13;1.40;;;;;;;-145.69;100.00;71292.94;5076028;28;20203;-77
2022/04/06 06:47:14;;;;;;;1.47;1.20;;;;;;;-145.69;100.00;71269.06;5075831;28;20203;-77
2022/04/06 06:49:46;;;;;;;1.77;1.33;;;;;;;-145.69;100.00;71265.09;5075549;28;20650;-77
2022/04/06 06:52:13;;;;;;;2.13;1.20;;;;;;;-145.69;100.00;71249.19;5075528;28;20198;-76
2022/04/06 06:54:40;;;;;;;5.53;1.20;;;;;;;-145.69;100.00;71245.19;5075713;28;20241;-76
2022/04/06 06:57:06;;;;;;;4.77;1.10;;;;;;;-145.69;100.00;71249.19;5073883;28;20210;-77
2022/04/06 06:59:33;;;;;;;2.07;1.20;;;;;;;-145.69;100.00;71221.31;5073607;28;20621;-76
2022/04/06 07:01:59;;;;;;;1.33;0.90;;;;;;;-145.69;100.00;71205.41;5073344;28;20201;-77
2022/04/06 07:04:26;;;;;;;2.60;1.00;;;;;;;-145.69;100.00;71217.34;5073205;28;20222;-77
2022/04/06 07:06:54;;;;;;;1.13;1.00;;;;;;;-145.69;100.00;71193.47;5073249;28;20206;-77
2022/04/06 07:09:20;;;;;;;1.60;1.20;;;;;;;-145.69;100.00;71213.38;5072791;28;20194;-77
2022/04/06 07:11:47;;;;;;;2.70;1.20;;;;;;;-145.69;100.00;71197.44;5074522;28;20195;-76
2022/04/06 07:14:13;;;;;;;4.60;1.73;;;;;;;-145.69;100.00;71171.56;5075443;28;20742;-77
2022/04/06 07:16:39;;;;;;;1.07;0.80;;;;;;;-145.69;100.00;71187.50;5075189;28;20332;-76
2022/04/06 07:19:06;;;;;;;2.20;0.93;;;;;;;-145.69;100.00;71173.56;5074846;28;20230;-78
2022/04/06 07:21:32;;;;;;;1.43;1.10;;;;;;;-145.69;100.00;71159.63;5075161;28;20233;-77
2022/04/06 07:24:02;;;;;;;1.10;1.00;;;;;;;-145.69;100.00;71125.81;5074980;28;20280;-77
2022/04/06 07:26:28;;;;;;;1.20;1.10;;;;;;;-145.69;100.00;71159.63;5075060;28;20669;-77
2022/04/06 07:28:55;;;;;;;2.43;1.43;;;;;;;-145.69;100.00;71121.84;5075040;28;20203;-77
2022/04/06 07:31:21;;;;;;;1.47;0.80;;;;;;;-145.69;100.00;71135.75;5074814;28;20206;-77
2022/04/06 07:33:48;;;;;;;0.60;0.60;;;;;;;-145.69;100.00;71145.72;5074771;28;20210;-78
2022/04/06 07:36:14;;;;;;;1.50;0.90;;;;;;;-145.69;100.00;71135.75;5074930;28;20252;-77
2022/04/06 07:38:40;;;;;;;1.90;1.33;;;;;;;-145.69;100.00;71127.81;5074475;28;20199;-77
2022/04/06 07:41:08;;;;;;;1.20;1.10;;;;;;;-145.69;100.00;71121.84;5074835;28;20570;-77
2022/04/06 07:43:35;;;;;;;1.00;0.87;;;;;;;-145.69;100.00;71107.91;5074285;28;20701;-77
2022/04/06 07:46:01;;;;;;;2.80;1.23;;;;;;;-145.69;100.00;71093.97;5074499;28;20290;-77
2022/04/06 07:48:28;;;;;;;1.80;1.30;;;;;;;-145.69;100.00;71092.00;5074546;28;20209;-77
2022/04/06 07:50:55;;;;;;;2.67;1.27;;;;;;;-145.69;100.00;71088.00;5074579;28;20252;-77
2022/04/06 07:53:21;;;;;;;1.70;1.20;;;;;;;-145.69;100.00;71101.94;5074282;28;20199;-77
2022/04/06 07:55:49;;;;;;;0.70;0.70;;;;;;;-145.69;100.00;71097.97;5074356;28;20237;-76
2022/04/06 07:58:18;;;;;;;1.10;1.00;;;;;;;-145.69;100.00;71076.06;5074218;28;20198;-77
2022/04/06 08:00:45;;;;;;;0.70;0.70;;;;;;;-145.69;100.00;71107.91;5071585;28;20203;-77
2022/04/06 08:03:11;;;;;;;1.30;0.90;;;;;;;-145.69;100.00;71139.75;5072793;28;20228;-77
2022/04/06 08:05:37;;;;;;;2.77;0.80;;;;;;;-145.69;100.00;71107.91;5056238;28;20286;-77
2022/04/06 08:08:04;;;;;;;2.37;0.70;;;;;;;-145.69;100.00;71107.91;5053945;28;20203;-77
2022/04/06 08:10:31;;;;;;;0.90;0.73;;;;;;;-145.69;100.00;71097.97;5072868;28;20654;-77
2022/04/06 08:12:57;;;;;;;3.57;1.07;;;;;;;-145.69;100.00;71080.06;5073745;28;20654;-77
2022/04/06 08:15:25;;;;;;;1.07;0.80;;;;;;;-145.69;100.00;71107.91;5072712;28;20206;-78
2022/04/06 08:17:52;;;;;;;1.07;0.90;;;;;;;-145.69;99.93;71123.81;5072814;28;20314;-77
2022/04/06 08:20:20;;;;;;;1.70;1.00;;;;;;;-145.69;100.00;71082.03;5072351;28;20195;-77
2022/04/06 08:22:49;;;;;;;0.80;0.70;;;;;;;-145.69;97.63;71040.25;5073396;28;20203;-77
2022/04/06 08:25:17;;;;;;;0.70;0.60;;;;;;;-145.69;96.49;71048.22;5073103;28;20715;-77
2022/04/06 08:27:44;;;;;;;2.00;0.80;;;;;;;-145.69;96.65;71046.22;5073397;28;20206;-77
2022/04/06 08:30:12;;;;;;;1.00;0.53;;;;;;;-145.69;96.82;71062.13;5073470;28;20194;-77
2022/04/06 08:32:40;;;;;;;0.50;0.50;;;;;;;-145.69;98.73;71036.28;5073501;28;20203;-77
2022/04/06 08:35:09;;;;;;;0.60;0.60;;;;;;;-145.69;96.83;71014.38;5073558;28;20565;-77
2022/04/06 08:37:37;;;;;;;0.60;0.60;;;;;;;-145.69;97.69;71046.22;5073507;28;20238;-77
2022/04/06 08:40:07;;;;;;;0.50;0.50;;;;;;;-145.69;97.25;71022.34;5072446;28;20203;-77
2022/04/06 08:42:34;;;;;;;0.80;0.70;;;;;;;-145.69;96.76;70996.47;5072318;28;20594;-77
2022/04/06 08:45:02;;;;;;;1.33;0.60;;;;;;;-145.69;96.29;70998.47;5072237;28;20279;-76
2022/04/06 08:47:29;;;;;;;0.73;0.73;;;;;;;-145.69;97.07;70982.56;5073277;28;20237;-77
2022/04/06 08:49:57;;;;;;;1.13;0.60;;;;;;;-145.69;95.80;70992.50;5058570;28;20666;-77
2022/04/06 08:52:24;;;;;;;1.60;0.83;;;;;;;-145.69;95.49;70980.56;5053217;28;20227;-77
2022/04/06 08:54:50;;;;;;;1.47;0.87;;;;;;;-145.69;96.53;70992.50;5053088;28;20211;-76
2022/04/06 08:57:18;;;;;;;0.60;0.60;;;;;;;-145.69;93.17;70994.50;5053225;28;20203;-77
2022/04/06 08:59:44;;;;;;;0.80;0.70;;;;;;;-145.69;94.92;71024.34;5053346;28;20199;-76
2022/04/06 09:02:11;;;;;;;1.37;0.70;;;;;;;-145.69;97.08;71028.31;5053197;28;20199;-76
2022/04/06 09:04:39;;;;;;;0.87;0.70;;;;;;;-145.69;98.53;71018.38;5053086;28;20281;-77
2022/04/06 09:07:10;;;;;;;3.17;0.70;;;;;;;-145.69;95.75;70968.63;5052984;28;20204;-77
2022/04/06 09:09:37;;;;;;;1.10;0.60;;;;;;;-145.69;96.31;70978.56;5066317;28;20209;-76
2022/04/06 09:12:07;;;;;;;1.03;0.50;;;;;;;-145.69;93.97;70980.56;5072851;28;20203;-76
2022/04/06 09:14:33;;;;;;;0.83;0.60;;;;;;;-145.69;94.92;70982.56;5073019;28;20226;-78
2022/04/06 09:17:04;;;;;;;0.60;0.60;;;;;;;-145.69;96.16;70982.56;5072634;28;20657;-77
2022/04/06 09:19:30;;;;;;;2.88;0.60;;;;;;;-145.69;93.02;70960.66;5072837;28;20438;-76
2022/04/06 09:21:57;;;;;;;1.23;0.53;;;;;;;-145.69;92.83;70908.94;5072828;28;20203;-76
2022/04/06 09:24:25;;;;;;;1.00;0.60;;;;;;;-145.69;87.92;70881.09;5073034;28;20249;-76
2022/04/06 09:26:56;;;;;;;0.77;0.70;;;;;;;-145.69;92.62;70845.28;5072912;28;20210;-76
2022/04/06 09:29:24;;;;;;;1.37;0.57;;;;;;;-145.69;89.89;70875.13;5072941;28;20285;-78
2022/04/06 09:31:51;;;;;;;0.47;0.40;;;;;;;-145.69;88.55;70904.97;5075427;28;20229;-76
2022/04/06 09:34:21;;;;;;;0.32;0.32;;;;;;;-145.69;87.53;70912.91;5076671;28;20199;-76
2022/04/06 09:36:47;;;;;;;2.60;0.77;;;;;;;-145.69;87.00;70879.09;5077226;28;20210;-75
2022/04/06 09:39:14;;;;;;;4.20;1.60;;;;;;;-145.69;85.48;70831.34;5076535;28;20198;-76
2022/04/06 09:42:00;;;;;;;1.33;0.60;;;;;;;-145.69;86.93;70889.03;5076717;28;20260;-75
2022/04/06 09:50:10;;;;;;;2.07;0.53;;;;;;;-145.69;86.67;70831.34;5056549;28;20309;-75
2022/04/06 09:52:37;;;;;;;0.40;0.40;;;;;;;-145.69;86.20;70781.59;5056434;28;20195;-76
2022/04/06 09:55:07;;;;;;;2.73;0.60;;;;;;;-145.69;79.41;70709.97;5056279;28;20662;-76
2022/04/06 09:57:40;;;;;;;0.60;0.50;;;;;;;-145.69;81.42;70696.06;5056689;28;20219;-75
2022/04/06 10:00:08;;;;;;;0.50;0.40;;;;;;;-145.69;82.97;70706.00;5068397;28;20191;-76
2022/04/06 10:02:35;;;;;;;1.00;0.40;;;;;;;-145.69;81.28;70664.22;5076234;28;20272;-75
2022/04/06 10:05:03;;;;;;;0.57;0.52;;;;;;;-145.69;83.17;70757.72;5063844;28;20277;-76
2022/04/06 10:07:30;;;;;;;0.60;0.50;;;;;;;-145.69;87.09;70733.84;5056025;28;20199;-76
2022/04/06 10:09:57;;;;;;;3.33;0.50;;;;;;;-145.69;86.85;70781.59;5055926;28;20199;-77
2022/04/06 10:12:24;;;;;;;1.03;0.40;;;;;;;-145.69;80.79;70789.56;5056272;28;20207;-77
2022/04/06 10:14:54;;;;;;;0.63;0.50;;;;;;;-145.69;83.73;70725.91;5055976;28;20200;-77
2022/04/06 10:17:22;;;;;;;0.70;0.57;;;;;;;-145.69;80.86;70737.84;5055576;28;20590;-77
2022/04/06 10:20:03;;;;;;;0.60;0.43;;;;;;;-145.69;79.83;70761.72;5056022;28;20223;-76
2022/04/06 10:22:32;;;;;;;1.03;0.50;;;;;;;-145.69;83.55;70763.69;5055911;28;20740;-76
2022/04/06 10:25:08;;;;;;;0.57;0.40;;;;;;;-145.69;83.39;70753.75;5055989;28;20641;-76
2022/04/06 10:27:39;;;;;;;1.07;0.43;;;;;;;-145.69;80.17;70775.63;5055772;28;20460;-76
2022/04/06 10:30:16;;;;;;;0.97;0.50;;;;;;;-145.69;81.47;70787.56;5055613;28;20593;-76
2022/04/06 10:32:45;;;;;;;1.07;0.40;;;;;;;-145.69;81.18;70803.50;5055578;28;20257;-76
2022/04/06 10:35:27;;;;;;;0.63;0.40;;;;;;;-145.69;82.82;70761.72;5073996;28;20604;-75
2022/04/06 10:38:14;;;;;;;0.50;0.50;;;;;;;-145.69;81.66;70789.56;5075664;28;20202;-75
2022/04/06 10:40:57;;;;;;;1.03;0.40;;;;;;;-145.69;83.34;70779.63;5075622;28;20298;-75
2022/04/06 10:43:50;;;;;;;1.13;0.60;;;;;;;-145.69;84.73;70755.75;5074942;28;20199;-75
2022/04/06 10:46:33;;;;;;;5.13;1.07;;;;;;;-145.69;85.73;70717.94;5075611;28;20253;-75
2022/04/06 10:49:12;;;;;;;1.73;0.73;;;;;;;-145.69;78.89;70698.03;5075474;28;20206;-74
2022/04/06 10:51:41;;;;;;;2.27;1.43;;;;;;;-145.69;79.63;70674.16;5075309;28;20279;-75
2022/04/06 10:54:41;;;;;;;1.83;1.40;;;;;;;-145.69;79.75;70650.28;5075439;28;20222;-75
2022/04/06 10:57:07;;;;;;;0.70;0.70;;;;;;;-145.69;78.82;70628.41;5071431;28;20218;-75
2022/04/06 10:59:34;;;;;;;2.00;1.40;;;;;;;-145.69;77.15;70600.56;5074932;28;20191;-75
2022/04/06 11:02:21;;;;;;;3.47;0.80;;;;;;;-145.69;73.20;70606.53;5074943;28;20207;-75
2022/04/06 11:04:49;;;;;;;1.20;0.90;;;;;;;-145.69;72.29;70586.63;5074823;28;20266;-75
2022/04/06 11:10:06;;;;;;;0.40;0.40;;;;;;;-145.69;68.11;70658.25;5075161;28;20202;-75
2022/04/06 11:10:12;;;;;;;0.47;0.30;;;;;;;-145.69;70.55;70606.53;5074811;28;20203;-75
2022/04/06 11:12:58;;;;;;;0.40;0.40;;;;;;;-145.69;69.70;70606.53;5075054;28;20260;-76
2022/04/06 11:15:34;;;;;;;0.50;0.40;;;;;;;-145.69;70.08;70580.66;5075017;28;20289;-75
2022/04/06 11:18:02;;;;;;;0.75;0.65;;;;;;;-145.69;72.48;70520.97;5074626;28;20230;-76
2022/04/06 11:20:33;;;;;;;1.35;0.43;;;;;;;-145.69;70.36;70522.97;5074618;28;20210;-75
2022/04/06 11:23:00;;;;;;;0.95;0.43;;;;;;;-145.69;66.58;70552.81;5074843;28;20283;-75
2022/04/06 11:25:28;;;;;;;0.30;0.30;;;;;;;-145.69;65.69;70568.72;5074671;28;20279;-76